Terminal Aerodrome Forecast
Issued by NWS Pocatello, ID

Home | Current Version | Previous Version | Text Only | Print | Product List | Glossary On
Versions: 1 2 3 4 5 6 7 8 9 10 11 12
000
FTUS45 KPIH 250520
TAFBYI
TAF
KBYI 250520Z 2506/2606 24007KT P6SM BKN100
     FM251700 27010G20KT P6SM SCT050 BKN200
     FM260200 22007KT P6SM SCT050=

USA.gov is the U.S. government's official web portal to all federal, state and local government web resources and services.